Hulbert, Michigan
Current Conditions -  °F | °C
As of 4:54 AM on Thursday 23 Oct 2014 (Local Time) from KERY Reporting Station
Clear Clear  
Wind Chill: 26°   Ceiling: Unl
Heat Index: 31°   Visibility: 10mi
Dew Point: 31°   Wind: 5mph
Humidity: 99%   Direction: 170°S
Pressure: 30.2"   Gusts: NA
Location:  46.35°N, 85.15°W
Report Text: KERY 230854Z AUTO 17004KT 10SM CLR 00/M01 A3020 RMK AO2 T10051007
Loading
Personal Weather Stations






























Interactive Weather Map New forecast layout! Learn more

10-Day Weather Forecast

Advertisements
Track Severe Weather on mobile